Time;durP1;ratioP1;P1;durP2;ratioP2;P2;SDS_P1;SDS_P2;PMS_P1;PMS_P2;Temp;Humidity;BMP_temperature;BMP_pressure;BME280_temperature;BME280_humidity;BME280_pressure;Samples;Min_cycle;Max_cycle;Signal;HPM_P1;HPM_P2
2021/05/03 00:01:14;;;;;;;1.83;1.37;;;6.90;98.00;;;;;;5047740;28;20934;-71
2021/05/03 00:03:40;;;;;;;1.60;1.50;;;7.00;98.00;;;;;;5050202;28;20458;-70
2021/05/03 00:06:07;;;;;;;1.97;1.37;;;6.90;98.00;;;;;;5047603;28;20956;-71
2021/05/03 00:08:34;;;;;;;1.20;1.10;;;6.80;98.00;;;;;;5049976;28;20455;-70
2021/05/03 00:11:01;;;;;;;1.30;1.10;;;6.70;98.00;;;;;;5047568;28;20484;-71
2021/05/03 00:13:27;;;;;;;1.30;1.20;;;6.60;98.00;;;;;;5048790;28;20835;-70
2021/05/03 00:15:55;;;;;;;1.23;0.97;;;6.60;98.00;;;;;;5049955;28;20462;-71
2021/05/03 00:18:22;;;;;;;1.20;0.90;;;6.60;98.00;;;;;;5047775;28;20987;-70
2021/05/03 00:20:48;;;;;;;1.20;1.00;;;6.70;98.00;;;;;;5052096;28;20851;-70
2021/05/03 00:23:16;;;;;;;1.50;1.10;;;6.80;98.00;;;;;;5051174;28;20462;-70
2021/05/03 00:25:42;;;;;;;1.20;0.90;;;6.90;98.00;;;;;;5053710;28;20539;-70
2021/05/03 00:28:10;;;;;;;1.20;1.03;;;7.00;98.00;;;;;;5050882;28;20522;-71
2021/05/03 00:30:37;;;;;;;1.77;1.57;;;6.90;98.00;;;;;;5053622;28;20528;-70
2021/05/03 00:33:05;;;;;;;1.50;1.27;;;7.00;98.00;;;;;;5050741;28;20500;-70
2021/05/03 00:35:31;;;;;;;1.20;1.10;;;6.90;98.00;;;;;;5052534;28;20453;-70
2021/05/03 00:37:58;;;;;;;1.70;1.10;;;6.70;98.00;;;;;;5051039;28;20465;-70
2021/05/03 00:40:25;;;;;;;1.47;1.23;;;6.60;98.00;;;;;;5053479;28;20960;-70
2021/05/03 00:42:52;;;;;;;1.77;1.17;;;6.60;98.00;;;;;;5050498;28;20814;-70
2021/05/03 00:45:20;;;;;;;1.33;1.20;;;6.40;98.00;;;;;;5053320;28;20464;-70
2021/05/03 00:47:46;;;;;;;1.60;1.20;;;6.30;98.00;;;;;;5050069;28;20468;-70
2021/05/03 00:50:15;;;;;;;1.43;1.30;;;6.30;98.00;;;;;;5053349;28;20457;-70
2021/05/03 00:52:42;;;;;;;1.20;1.10;;;6.40;98.00;;;;;;5050211;28;21129;-70
2021/05/03 00:55:09;;;;;;;1.67;1.23;;;6.40;98.00;;;;;;5053114;28;20465;-70
2021/05/03 00:57:37;;;;;;;1.83;1.83;;;6.50;98.00;;;;;;5050276;28;20511;-70
2021/05/03 01:00:05;;;;;;;1.60;1.17;;;6.40;98.00;;;;;;5052783;28;20970;-70
2021/05/03 01:02:32;;;;;;;1.60;1.50;;;6.40;98.00;;;;;;5050113;28;20482;-70
2021/05/03 01:04:58;;;;;;;1.33;1.10;;;6.40;98.00;;;;;;5052975;28;20461;-70
2021/05/03 01:07:24;;;;;;;2.47;1.60;;;6.50;98.00;;;;;;5050263;28;20822;-70
2021/05/03 01:09:51;;;;;;;1.67;1.37;;;6.50;98.00;;;;;;5052725;28;20461;-70
2021/05/03 01:12:18;;;;;;;1.20;1.17;;;6.60;98.00;;;;;;5049984;28;20504;-70
2021/05/03 01:14:46;;;;;;;1.20;1.10;;;6.60;98.00;;;;;;5052585;28;20502;-70
2021/05/03 01:17:12;;;;;;;2.80;1.37;;;6.70;98.00;;;;;;5050011;28;20491;-70
2021/05/03 01:19:39;;;;;;;1.50;1.30;;;6.80;98.00;;;;;;5052554;28;20469;-70
2021/05/03 01:22:06;;;;;;;2.20;2.10;;;6.70;98.00;;;;;;5049976;28;20740;-70
2021/05/03 01:24:33;;;;;;;3.50;1.70;;;6.70;98.00;;;;;;5052532;28;20461;-70
2021/05/03 01:27:00;;;;;;;1.97;1.37;;;6.50;98.00;;;;;;5049770;28;20466;-70
2021/05/03 01:29:26;;;;;;;2.27;1.30;;;6.50;98.00;;;;;;5052140;28;21007;-70
2021/05/03 01:31:54;;;;;;;1.20;1.10;;;6.50;98.00;;;;;;5049402;28;20540;-70
2021/05/03 01:34:21;;;;;;;1.47;1.43;;;6.30;98.00;;;;;;5052482;28;20528;-70
2021/05/03 01:36:49;;;;;;;1.80;1.10;;;6.20;98.00;;;;;;5049559;28;20950;-70
2021/05/03 01:39:18;;;;;;;6.70;1.77;;;6.10;98.00;;;;;;5050877;28;20794;-70
2021/05/03 01:42:04;;;;;;;1.50;1.20;;;6.20;98.00;;;;;;5049578;28;20467;-70
2021/05/03 01:44:31;;;;;;;2.57;1.43;;;6.40;98.00;;;;;;5052322;28;20458;-70
2021/05/03 01:46:58;;;;;;;1.20;0.90;;;6.40;98.00;;;;;;5049613;28;20481;-70
2021/05/03 01:49:26;;;;;;;2.23;1.20;;;6.60;98.00;;;;;;5051785;28;20464;-70
2021/05/03 01:51:55;;;;;;;1.63;1.37;;;6.60;98.00;;;;;;5049717;28;20488;-70
2021/05/03 01:54:23;;;;;;;1.80;1.50;;;6.60;98.00;;;;;;5051955;28;20512;-70
2021/05/03 01:56:49;;;;;;;1.20;1.10;;;6.70;98.00;;;;;;5049647;28;20532;-70
2021/05/03 01:59:16;;;;;;;2.70;2.07;;;6.70;98.00;;;;;;5051984;28;20510;-70
2021/05/03 02:01:43;;;;;;;4.07;1.60;;;6.80;98.00;;;;;;5049465;28;20654;-70
2021/05/03 02:04:10;;;;;;;1.70;1.63;;;6.70;98.00;;;;;;5051982;28;20458;-70
2021/05/03 02:06:38;;;;;;;1.50;1.20;;;6.40;98.00;;;;;;5049210;28;20964;-70
2021/05/03 02:09:06;;;;;;;3.00;1.40;;;6.20;98.00;;;;;;5051514;28;20979;-70
2021/05/03 02:11:39;;;;;;;1.50;1.47;;;6.10;98.00;;;;;;5049087;28;21011;-70
2021/05/03 02:14:06;;;;;;;1.20;1.00;;;5.90;98.00;;;;;;5051745;28;20480;-70
2021/05/03 02:16:34;;;;;;;1.23;0.97;;;5.70;98.00;;;;;;5049261;28;20480;-70
2021/05/03 02:19:01;;;;;;;1.63;1.30;;;5.60;98.00;;;;;;5051701;28;20465;-70
2021/05/03 02:21:28;;;;;;;1.20;1.00;;;5.50;98.00;;;;;;5049175;28;20472;-71
2021/05/03 02:23:55;;;;;;;1.20;1.00;;;5.50;98.00;;;;;;5051510;28;20464;-70
2021/05/03 02:26:21;;;;;;;1.40;1.20;;;5.60;98.00;;;;;;5048895;28;20492;-71
2021/05/03 02:28:51;;;;;;;2.07;1.43;;;5.50;98.00;;;;;;5051117;28;20469;-70
2021/05/03 02:31:17;;;;;;;1.20;1.10;;;5.40;98.00;;;;;;5048655;28;20479;-71
2021/05/03 02:33:44;;;;;;;1.20;1.07;;;5.40;98.00;;;;;;5051305;28;20884;-70
2021/05/03 02:36:11;;;;;;;1.70;1.30;;;5.30;98.00;;;;;;5050554;28;20963;-71
2021/05/03 02:38:37;;;;;;;2.07;1.47;;;5.30;98.00;;;;;;5049855;28;20490;-70
2021/05/03 02:41:04;;;;;;;1.30;1.23;;;5.30;98.00;;;;;;5051017;28;20458;-70
2021/05/03 02:43:30;;;;;;;1.20;0.90;;;5.30;98.00;;;;;;5047699;28;20476;-70
2021/05/03 02:46:06;;;;;;;2.20;1.53;;;5.50;98.00;;;;;;5051029;28;20482;-69
2021/05/03 02:48:33;;;;;;;1.80;1.10;;;5.90;98.00;;;;;;5048566;28;20460;-70
2021/05/03 02:50:59;;;;;;;1.20;1.07;;;6.10;98.00;;;;;;5051130;28;20491;-69
2021/05/03 02:53:26;;;;;;;2.13;1.30;;;6.00;98.00;;;;;;5047077;28;20882;-70
2021/05/03 02:55:53;;;;;;;1.20;0.93;;;6.00;98.00;;;;;;5050739;28;20550;-70
2021/05/03 02:58:20;;;;;;;2.10;1.70;;;6.00;98.00;;;;;;5049392;28;20507;-70
2021/05/03 03:00:47;;;;;;;1.20;0.90;;;6.00;98.00;;;;;;5051465;28;20459;-70
2021/05/03 03:03:14;;;;;;;1.20;1.00;;;6.00;98.00;;;;;;5049238;28;20450;-70
2021/05/03 03:05:41;;;;;;;1.60;1.40;;;5.80;98.00;;;;;;5051601;28;20462;-70
2021/05/03 03:08:08;;;;;;;2.30;1.57;;;5.60;98.00;;;;;;5047940;28;20464;-70
2021/05/03 03:10:36;;;;;;;2.70;1.90;;;5.30;98.00;;;;;;5050809;28;20519;-70
2021/05/03 03:13:04;;;;;;;2.80;1.43;;;5.20;98.00;;;;;;5048325;28;20490;-70
2021/05/03 03:15:33;;;;;;;2.03;1.30;;;5.00;98.00;;;;;;5050742;28;20454;-70
2021/05/03 03:18:02;;;;;;;3.23;1.57;;;4.90;98.00;;;;;;5048224;28;20513;-70
2021/05/03 03:20:29;;;;;;;3.90;1.43;;;4.70;98.00;;;;;;5050761;28;20577;-70
2021/05/03 03:22:56;;;;;;;1.20;1.10;;;4.70;98.00;;;;;;5047096;28;20531;-70
2021/05/03 03:25:23;;;;;;;1.60;1.50;;;4.70;98.00;;;;;;5050525;28;20601;-69
2021/05/03 03:27:50;;;;;;;1.20;0.90;;;4.60;98.00;;;;;;5048059;28;20469;-70
2021/05/03 03:30:18;;;;;;;1.40;1.20;;;4.60;98.00;;;;;;5050774;28;20516;-70
2021/05/03 03:32:45;;;;;;;1.60;1.10;;;4.80;98.00;;;;;;5046240;28;20548;-70
2021/05/03 03:35:13;;;;;;;3.50;1.40;;;4.80;98.00;;;;;;5050680;28;20453;-70
2021/05/03 03:37:41;;;;;;;1.90;1.73;;;4.70;98.00;;;;;;5048009;28;20495;-70
2021/05/03 03:40:08;;;;;;;1.20;0.97;;;4.80;98.00;;;;;;5050493;28;20450;-69
2021/05/03 03:42:35;;;;;;;1.20;1.00;;;4.80;98.00;;;;;;5047745;28;20812;-70
2021/05/03 03:45:02;;;;;;;1.30;1.30;;;4.90;98.00;;;;;;5050639;28;20467;-69
2021/05/03 03:47:28;;;;;;;1.20;1.00;;;5.00;98.00;;;;;;5047616;28;20464;-69
2021/05/03 03:49:55;;;;;;;1.40;1.37;;;5.00;98.00;;;;;;5050570;28;20464;-69
2021/05/03 03:52:23;;;;;;;1.30;1.20;;;4.90;98.00;;;;;;5046705;28;21008;-70
2021/05/03 03:54:51;;;;;;;1.20;1.07;;;4.90;98.00;;;;;;5052787;28;20458;-69
2021/05/03 03:57:18;;;;;;;1.60;1.30;;;4.70;98.00;;;;;;5051906;28;20448;-69
2021/05/03 03:59:48;;;;;;;2.50;1.60;;;4.50;98.00;;;;;;5054342;28;20468;-69
2021/05/03 04:02:14;;;;;;;2.33;1.43;;;4.50;98.00;;;;;;5051970;28;20876;-70
2021/05/03 04:04:46;;;;;;;1.20;1.00;;;4.40;98.00;;;;;;5054181;28;20459;-69
2021/05/03 04:07:18;;;;;;;1.30;1.27;;;4.30;98.00;;;;;;5051316;28;20466;-69
2021/05/03 04:09:51;;;;;;;1.20;1.10;;;4.30;98.00;;;;;;5053941;28;20466;-70
2021/05/03 04:12:35;;;;;;;1.20;1.10;;;4.50;98.00;;;;;;5051310;28;21033;-70
2021/05/03 04:23:44;;;;;;;1.70;1.40;;;4.40;98.00;;;;;;5051408;28;20446;-69
2021/05/03 04:26:11;;;;;;;1.30;1.10;;;4.30;98.00;;;;;;5053293;28;20454;-69
2021/05/03 04:28:39;;;;;;;1.30;1.17;;;4.20;98.00;;;;;;5050785;28;20517;-69
2021/05/03 04:31:05;;;;;;;1.30;1.10;;;4.20;98.00;;;;;;5053438;28;20808;-69
2021/05/03 04:33:32;;;;;;;1.50;1.17;;;4.30;98.00;;;;;;5050860;28;20456;-70
2021/05/03 04:35:59;;;;;;;1.20;1.00;;;4.30;98.00;;;;;;5053513;28;20491;-69
2021/05/03 04:38:25;;;;;;;1.43;1.37;;;4.30;98.00;;;;;;5050747;28;20542;-69
2021/05/03 04:40:52;;;;;;;1.63;1.63;;;4.20;98.00;;;;;;5053024;28;20499;-69
2021/05/03 04:43:19;;;;;;;1.30;1.07;;;4.10;98.00;;;;;;5050703;28;20968;-69
2021/05/03 04:45:46;;;;;;;2.20;1.83;;;4.10;98.00;;;;;;5053236;28;20482;-69
2021/05/03 04:48:13;;;;;;;1.20;0.97;;;4.30;98.00;;;;;;5050488;28;20515;-69
2021/05/03 04:50:39;;;;;;;1.37;1.00;;;4.50;98.00;;;;;;5053196;28;20478;-69
2021/05/03 04:53:06;;;;;;;1.30;1.00;;;4.60;98.00;;;;;;5050501;28;20523;-69
2021/05/03 04:55:32;;;;;;;1.40;1.20;;;4.50;98.00;;;;;;5052996;28;20498;-69
2021/05/03 04:57:58;;;;;;;1.27;1.13;;;4.50;98.00;;;;;;5050440;28;20480;-70
2021/05/03 05:00:25;;;;;;;1.20;1.00;;;4.40;98.00;;;;;;5053024;28;20973;-69
2021/05/03 05:02:53;;;;;;;1.20;0.90;;;4.50;98.00;;;;;;5050296;28;20964;-69
2021/05/03 05:05:20;;;;;;;1.20;1.00;;;4.60;98.00;;;;;;5051947;28;20521;-69
2021/05/03 05:07:47;;;;;;;1.20;1.00;;;4.80;98.00;;;;;;5050509;28;20464;-69
2021/05/03 05:10:14;;;;;;;1.27;1.27;;;5.10;98.00;;;;;;5053024;28;20455;-69
2021/05/03 05:12:41;;;;;;;1.37;1.23;;;5.30;98.00;;;;;;5050315;28;20514;-69
2021/05/03 05:15:08;;;;;;;2.13;1.30;;;5.50;98.00;;;;;;5052802;28;20944;-69
2021/05/03 05:17:36;;;;;;;2.17;1.60;;;5.60;98.00;;;;;;5050020;28;20489;-69
2021/05/03 05:20:04;;;;;;;2.50;2.40;;;5.70;98.00;;;;;;5052851;28;20473;-69
2021/05/03 05:22:31;;;;;;;1.20;1.10;;;5.70;98.00;;;;;;5050256;28;20479;-69
2021/05/03 05:25:00;;;;;;;2.17;1.83;;;5.60;98.00;;;;;;5052868;28;20508;-69
2021/05/03 05:27:26;;;;;;;1.70;1.20;;;5.50;98.00;;;;;;5050282;28;20463;-69
2021/05/03 05:29:53;;;;;;;1.97;1.43;;;5.40;98.00;;;;;;5052527;28;20461;-69
2021/05/03 05:32:19;;;;;;;1.77;1.63;;;5.50;98.00;;;;;;5049731;28;20526;-69
2021/05/03 05:34:46;;;;;;;5.77;2.37;;;5.50;98.00;;;;;;5052325;28;20458;-69
2021/05/03 05:37:14;;;;;;;1.20;1.10;;;5.50;98.00;;;;;;5049560;28;20493;-69
2021/05/03 05:39:41;;;;;;;1.50;1.30;;;5.70;98.00;;;;;;5052267;28;20450;-69
2021/05/03 05:42:09;;;;;;;1.50;1.30;;;6.00;98.00;;;;;;5049718;28;20450;-69
2021/05/03 05:44:35;;;;;;;3.50;1.40;;;6.20;98.00;;;;;;5052150;28;20465;-69
2021/05/03 05:47:01;;;;;;;1.20;1.00;;;6.40;98.00;;;;;;5049736;28;20469;-69
2021/05/03 05:49:28;;;;;;;1.20;1.00;;;6.40;98.00;;;;;;5052079;28;20493;-69
2021/05/03 05:51:54;;;;;;;1.90;1.90;;;6.60;98.00;;;;;;5049308;28;20510;-70
2021/05/03 05:54:22;;;;;;;2.30;1.30;;;6.80;98.00;;;;;;5052043;28;20459;-69
2021/05/03 05:56:48;;;;;;;3.43;1.97;;;6.90;98.00;;;;;;5049300;28;20470;-70
2021/05/03 05:59:15;;;;;;;1.70;1.33;;;6.90;98.00;;;;;;5051772;28;20576;-70
2021/05/03 06:01:42;;;;;;;1.20;1.00;;;7.00;98.00;;;;;;5049429;28;20816;-69
2021/05/03 06:04:08;;;;;;;2.03;1.73;;;7.20;98.00;;;;;;5051780;28;20493;-69
2021/05/03 06:06:35;;;;;;;3.40;2.60;;;7.20;98.00;;;;;;5049397;28;20461;-70
2021/05/03 06:09:01;;;;;;;1.70;1.27;;;7.20;98.00;;;;;;5051813;28;20465;-69
2021/05/03 06:11:29;;;;;;;1.23;1.07;;;7.20;98.00;;;;;;5051573;28;20454;-69
2021/05/03 06:13:55;;;;;;;1.90;1.47;;;7.10;98.00;;;;;;5049296;28;20766;-69
2021/05/03 06:16:22;;;;;;;2.10;1.30;;;7.30;98.00;;;;;;5051500;28;20459;-69
2021/05/03 06:18:49;;;;;;;1.97;1.20;;;7.50;98.00;;;;;;5049107;28;20472;-70
2021/05/03 06:21:16;;;;;;;1.27;1.17;;;7.60;98.00;;;;;;5051413;28;20470;-70
2021/05/03 06:23:44;;;;;;;2.47;1.40;;;7.70;98.00;;;;;;5048137;28;20816;-70
2021/05/03 06:26:11;;;;;;;1.20;1.10;;;7.70;98.00;;;;;;5051527;28;20511;-69
2021/05/03 06:28:38;;;;;;;1.30;1.20;;;7.80;98.00;;;;;;5047669;28;20477;-69
2021/05/03 06:31:05;;;;;;;1.20;1.03;;;8.00;98.00;;;;;;5051443;28;20457;-70
2021/05/03 06:33:32;;;;;;;1.60;1.27;;;8.10;98.00;;;;;;5047513;28;20485;-70
2021/05/03 06:35:58;;;;;;;1.20;1.00;;;8.20;98.00;;;;;;5051144;28;20532;-69
2021/05/03 06:38:25;;;;;;;2.70;1.77;;;8.30;98.00;;;;;;5048517;28;20958;-69
2021/05/03 06:40:51;;;;;;;1.80;1.50;;;8.40;98.00;;;;;;5051085;28;20483;-69
2021/05/03 06:43:18;;;;;;;1.20;1.17;;;8.40;98.00;;;;;;5049151;28;20951;-69
2021/05/03 06:45:46;;;;;;;2.00;1.40;;;8.50;98.00;;;;;;5050005;28;20919;-69
2021/05/03 06:48:13;;;;;;;1.57;1.33;;;8.60;98.00;;;;;;5049100;28;20555;-70
2021/05/03 06:50:43;;;;;;;2.57;1.80;;;8.60;98.00;;;;;;5050993;28;20545;-70
2021/05/03 06:53:10;;;;;;;1.20;1.00;;;8.50;98.00;;;;;;5048858;28;20483;-69
2021/05/03 06:55:37;;;;;;;1.50;1.30;;;8.60;98.00;;;;;;5051211;28;20468;-70
2021/05/03 06:58:04;;;;;;;2.20;1.93;;;8.70;98.00;;;;;;5049061;28;20488;-69
2021/05/03 07:00:31;;;;;;;3.00;1.33;;;8.80;98.00;;;;;;5050962;28;20455;-69
2021/05/03 07:02:58;;;;;;;1.40;1.20;;;8.90;98.00;;;;;;5047841;28;20539;-69
2021/05/03 07:05:27;;;;;;;1.30;1.17;;;8.90;98.00;;;;;;5050899;28;20986;-70
2021/05/03 07:07:53;;;;;;;1.40;1.33;;;8.90;98.00;;;;;;5049171;28;20816;-70
2021/05/03 07:10:20;;;;;;;1.40;1.10;;;9.00;98.00;;;;;;5050775;28;20959;-69
2021/05/03 07:12:48;;;;;;;1.23;1.10;;;9.20;98.00;;;;;;5048318;28;20521;-69
2021/05/03 07:15:16;;;;;;;1.40;1.07;;;9.30;98.00;;;;;;5050641;28;20544;-70
2021/05/03 07:17:45;;;;;;;2.70;2.07;;;9.50;98.00;;;;;;5048260;28;21094;-70
2021/05/03 07:20:15;;;;;;;1.70;1.47;;;9.50;98.00;;;;;;5050375;28;20541;-70
2021/05/03 07:22:42;;;;;;;2.60;1.73;;;9.60;98.00;;;;;;5048162;28;20536;-69
2021/05/03 07:25:10;;;;;;;1.53;1.43;;;9.60;98.00;;;;;;5050611;28;20476;-70
2021/05/03 07:27:37;;;;;;;2.43;1.50;;;9.60;98.00;;;;;;5048268;28;20465;-71
2021/05/03 07:30:06;;;;;;;3.73;1.73;;;9.60;98.00;;;;;;5052256;28;20465;-72
2021/05/03 07:32:33;;;;;;;1.20;0.90;;;9.80;98.00;;;;;;5051524;28;20488;-71
2021/05/03 07:34:59;;;;;;;1.50;1.30;;;9.90;98.00;;;;;;5054035;28;20501;-71
2021/05/03 07:37:26;;;;;;;1.20;1.00;;;10.00;98.00;;;;;;5051427;28;20453;-69
2021/05/03 07:39:54;;;;;;;1.20;1.10;;;10.20;98.00;;;;;;5053844;28;20454;-70
2021/05/03 07:42:22;;;;;;;1.30;1.13;;;10.10;93.10;;;;;;5051709;28;20936;-71
2021/05/03 07:44:48;;;;;;;1.40;1.20;;;10.20;95.70;;;;;;5053970;28;20902;-71
2021/05/03 07:47:17;;;;;;;1.40;1.27;;;10.30;95.60;;;;;;5051013;28;20622;-69
2021/05/03 07:49:43;;;;;;;2.93;1.70;;;10.40;94.70;;;;;;5053884;28;20550;-71
2021/05/03 07:52:10;;;;;;;1.30;1.20;;;10.40;94.90;;;;;;5051228;28;20484;-71
2021/05/03 07:54:37;;;;;;;1.50;1.43;;;10.40;95.20;;;;;;5053614;28;20486;-71
2021/05/03 07:57:04;;;;;;;1.20;1.00;;;10.60;94.90;;;;;;5051097;28;20458;-71
2021/05/03 07:59:31;;;;;;;1.60;1.50;;;10.90;97.00;;;;;;5053756;28;20844;-72
2021/05/03 08:01:57;;;;;;;1.63;1.47;;;11.20;98.00;;;;;;5051337;28;20461;-72
2021/05/03 08:04:24;;;;;;;1.40;1.20;;;12.00;98.00;;;;;;5053574;28;20452;-71
2021/05/03 08:06:57;;;;;;;1.57;1.20;;;12.50;88.60;;;;;;5050805;28;20977;-71
2021/05/03 08:09:24;;;;;;;1.20;1.10;;;12.60;86.00;;;;;;5053657;28;20533;-71
2021/05/03 08:11:53;;;;;;;1.40;1.10;;;12.20;87.80;;;;;;5050992;28;20485;-71
2021/05/03 08:14:20;;;;;;;1.40;1.40;;;12.10;86.10;;;;;;5053548;28;20452;-71
2021/05/03 08:16:49;;;;;;;1.77;1.20;;;11.70;85.00;;;;;;5050833;28;21053;-72
2021/05/03 08:19:16;;;;;;;1.73;1.10;;;11.70;83.40;;;;;;5053346;28;20451;-71
2021/05/03 08:21:42;;;;;;;1.27;1.10;;;11.50;84.20;;;;;;5053576;28;20561;-71
2021/05/03 08:24:09;;;;;;;1.20;1.20;;;11.50;88.00;;;;;;5051622;28;20492;-71
2021/05/03 08:26:36;;;;;;;2.17;1.30;;;11.70;90.50;;;;;;5053284;28;20497;-71
2021/05/03 08:29:03;;;;;;;2.50;1.53;;;11.90;87.40;;;;;;5050581;28;20466;-71
2021/05/03 08:31:30;;;;;;;1.60;1.20;;;12.10;85.30;;;;;;5053169;28;21020;-71
2021/05/03 08:33:57;;;;;;;1.30;1.20;;;12.00;84.10;;;;;;5050766;28;21037;-71
2021/05/03 08:36:24;;;;;;;1.63;1.50;;;12.10;85.70;;;;;;5053082;28;20457;-71
2021/05/03 08:38:52;;;;;;;1.77;1.50;;;12.20;83.80;;;;;;5050628;28;20947;-72
2021/05/03 08:41:19;;;;;;;1.50;1.20;;;12.10;84.70;;;;;;5050645;28;20489;-71
2021/05/03 08:43:48;;;;;;;1.20;1.10;;;12.10;84.00;;;;;;5050483;28;20528;-71
2021/05/03 08:46:26;;;;;;;1.47;1.33;;;12.10;82.60;;;;;;5052936;28;20504;-72
2021/05/03 08:48:58;;;;;;;1.30;1.10;;;12.00;81.40;;;;;;5050155;28;20545;-71
2021/05/03 08:51:36;;;;;;;1.50;1.27;;;12.00;85.50;;;;;;5053667;28;20471;-71
2021/05/03 08:54:10;;;;;;;2.10;1.30;;;12.10;82.90;;;;;;5051416;28;20460;-71
2021/05/03 08:56:37;;;;;;;2.17;1.30;;;11.80;82.50;;;;;;5053443;28;20453;-71
2021/05/03 08:59:04;;;;;;;1.27;1.13;;;11.70;85.10;;;;;;5051344;28;20463;-71
2021/05/03 09:01:32;;;;;;;6.47;2.67;;;11.70;85.20;;;;;;5052807;28;20458;-71
2021/05/03 09:03:59;;;;;;;2.23;1.70;;;11.70;83.80;;;;;;5050302;28;20454;-71
2021/05/03 09:06:26;;;;;;;1.30;1.20;;;11.60;84.80;;;;;;5052397;28;20468;-71
2021/05/03 09:09:05;;;;;;;1.50;1.10;;;11.60;85.90;;;;;;5050140;28;20515;-71
2021/05/03 09:11:33;;;;;;;1.33;1.17;;;11.70;85.20;;;;;;5052601;28;20469;-70
2021/05/03 09:14:12;;;;;;;2.37;1.20;;;11.60;85.00;;;;;;5050015;28;20845;-72
2021/05/03 09:16:49;;;;;;;1.60;1.30;;;11.90;87.20;;;;;;5052091;28;20474;-71
2021/05/03 09:19:15;;;;;;;3.40;2.20;;;12.00;89.80;;;;;;5048221;28;20871;-71
2021/05/03 09:21:42;;;;;;;1.67;1.30;;;12.00;83.80;;;;;;5052125;28;20953;-71
2021/05/03 09:24:13;;;;;;;2.03;1.37;;;11.80;85.80;;;;;;5049702;28;20450;-71
2021/05/03 09:26:44;;;;;;;5.77;1.90;;;11.80;86.90;;;;;;5051921;28;20460;-68
2021/05/03 09:29:34;;;;;;;1.20;1.13;;;11.80;85.30;;;;;;5049395;28;20880;-70
2021/05/03 09:32:13;;;;;;;1.70;1.23;;;11.60;85.40;;;;;;5030428;28;20995;-71
2021/05/03 09:34:42;;;;;;;1.40;1.40;;;11.70;85.90;;;;;;5032004;28;20506;-71
2021/05/03 09:37:23;;;;;;;1.70;1.33;;;11.50;83.50;;;;;;5029142;28;21003;-70
2021/05/03 09:39:53;;;;;;;1.50;1.30;;;11.40;84.60;;;;;;5032010;28;20537;-71
2021/05/03 09:42:20;;;;;;;1.60;1.37;;;11.50;84.60;;;;;;5029353;28;20510;-71
2021/05/03 09:45:04;;;;;;;1.50;1.20;;;11.50;83.60;;;;;;5031778;28;20463;-71
2021/05/03 09:47:32;;;;;;;1.67;1.30;;;11.60;84.00;;;;;;5028988;28;20464;-71
2021/05/03 09:50:01;;;;;;;2.33;1.47;;;11.80;83.80;;;;;;5031838;28;20810;-71
2021/05/03 09:52:28;;;;;;;1.40;1.20;;;11.80;83.50;;;;;;5028994;28;20482;-71
2021/05/03 09:54:54;;;;;;;1.30;1.20;;;11.90;83.90;;;;;;5030605;28;20484;-71
2021/05/03 09:57:20;;;;;;;1.37;1.20;;;12.00;82.50;;;;;;5029222;28;20493;-71
2021/05/03 09:59:48;;;;;;;1.40;1.23;;;12.10;81.90;;;;;;5031515;28;20500;-71
2021/05/03 10:02:19;;;;;;;10.23;2.13;;;12.20;82.90;;;;;;5025992;28;20468;-71
2021/05/03 10:04:49;;;;;;;3.10;1.73;;;12.20;82.50;;;;;;5030053;28;20457;-71
2021/05/03 10:07:19;;;;;;;1.60;1.43;;;12.20;80.80;;;;;;5026752;28;20955;-71
2021/05/03 10:09:49;;;;;;;1.40;1.30;;;12.60;82.20;;;;;;5029628;28;20460;-70
2021/05/03 10:12:17;;;;;;;2.80;2.03;;;12.90;82.50;;;;;;5027672;28;20568;-71
2021/05/03 10:14:46;;;;;;;1.80;1.20;;;13.30;80.60;;;;;;5029290;28;20569;-71
2021/05/03 10:17:15;;;;;;;2.70;1.43;;;13.60;79.50;;;;;;5025674;28;20456;-72
2021/05/03 10:19:42;;;;;;;1.40;1.23;;;13.90;79.60;;;;;;5029790;28;20527;-72
2021/05/03 10:22:15;;;;;;;2.43;1.50;;;14.40;77.80;;;;;;5027174;28;20516;-72
2021/05/03 10:24:44;;;;;;;1.50;1.20;;;14.20;76.10;;;;;;5029902;28;20463;-72
2021/05/03 10:27:13;;;;;;;1.20;1.10;;;14.20;77.80;;;;;;5026339;28;20465;-72
2021/05/03 10:29:42;;;;;;;1.40;1.20;;;14.20;77.40;;;;;;5029488;28;20463;-72
2021/05/03 10:32:11;;;;;;;1.77;1.20;;;14.00;77.10;;;;;;5025219;28;21005;-72
2021/05/03 10:34:48;;;;;;;1.50;1.40;;;14.00;76.80;;;;;;5029441;28;20498;-72
2021/05/03 10:37:52;;;;;;;2.17;1.60;;;14.20;78.60;;;;;;5027297;28;20469;-72
2021/05/03 10:40:51;;;;;;;1.80;1.50;;;14.50;75.30;;;;;;5031068;28;20471;-72
2021/05/03 10:43:37;;;;;;;1.30;1.30;;;14.40;77.20;;;;;;5028401;28;20463;-72
2021/05/03 10:46:50;;;;;;;1.80;1.50;;;14.20;75.80;;;;;;5030665;28;20452;-72
2021/05/03 10:49:06;;;;;;;1.20;1.13;;;13.90;74.70;;;;;;5028296;28;20450;-72
2021/05/03 10:51:49;;;;;;;1.70;1.20;;;13.60;76.30;;;;;;5030902;28;20466;-72
2021/05/03 10:54:52;;;;;;;2.83;1.40;;;13.40;75.30;;;;;;5028578;28;20458;-72
2021/05/03 10:57:36;;;;;;;1.50;1.23;;;13.70;77.30;;;;;;4966924;28;20459;-72
2021/05/03 11:00:11;;;;;;;1.83;1.27;;;13.90;76.70;;;;;;5025058;28;20467;-71
2021/05/03 11:02:47;;;;;;;2.27;1.87;;;14.40;75.40;;;;;;5028581;28;20460;-72
2021/05/03 11:05:22;;;;;;;1.83;1.20;;;14.90;74.10;;;;;;5029981;28;20458;-71
2021/05/03 11:08:31;;;;;;;1.70;1.30;;;15.00;72.00;;;;;;5028385;28;20570;-72
2021/05/03 11:11:06;;;;;;;2.40;1.57;;;14.80;71.70;;;;;;5030834;28;20459;-71
2021/05/03 11:13:53;;;;;;;1.40;1.20;;;14.90;68.00;;;;;;5027273;28;20913;-71
2021/05/03 11:16:48;;;;;;;1.80;1.37;;;14.80;71.00;;;;;;5028998;28;20454;-72
2021/05/03 11:22:43;;;;;;;1.60;1.33;;;14.20;72.70;;;;;;5027776;28;20996;-71
2021/05/03 11:25:12;;;;;;;2.03;1.60;;;14.10;75.20;;;;;;5030273;28;20450;-71
2021/05/03 11:27:50;;;;;;;1.20;1.00;;;14.10;78.80;;;;;;5027887;28;20473;-71
2021/05/03 11:30:25;;;;;;;1.20;1.20;;;13.70;74.80;;;;;;5030527;28;20462;-71
2021/05/03 11:32:54;;;;;;;1.77;1.40;;;13.60;76.30;;;;;;5026775;28;20511;-71
2021/05/03 11:35:28;;;;;;;1.90;1.23;;;13.60;74.90;;;;;;5031165;28;20937;-71
2021/05/03 11:38:01;;;;;;;5.40;1.60;;;13.60;76.40;;;;;;5028900;28;20510;-71
2021/05/03 11:40:46;;;;;;;1.80;1.20;;;13.80;76.00;;;;;;5031305;28;20954;-68
2021/05/03 11:43:50;;;;;;;1.60;1.27;;;14.10;75.20;;;;;;5028808;28;20455;-72
2021/05/03 11:46:26;;;;;;;3.10;1.40;;;14.50;74.50;;;;;;5031037;28;20546;-71
2021/05/03 11:48:54;;;;;;;1.30;1.20;;;14.60;73.20;;;;;;5027137;28;20457;-71
2021/05/03 11:51:21;;;;;;;1.20;1.10;;;14.80;73.80;;;;;;5036143;28;20460;-69
2021/05/03 11:53:49;;;;;;;1.80;1.40;;;15.10;73.50;;;;;;5047331;28;20517;-71
2021/05/03 11:56:24;;;;;;;1.70;1.20;;;15.00;74.70;;;;;;5050212;28;20665;-68
2021/05/03 11:58:54;;;;;;;1.20;1.10;;;14.70;72.90;;;;;;5046389;28;20469;-71
2021/05/03 12:01:22;;;;;;;1.20;1.10;;;14.50;74.80;;;;;;5049992;28;20541;-71
2021/05/03 12:03:50;;;;;;;2.37;1.73;;;14.30;74.40;;;;;;5047116;28;20453;-71
2021/05/03 12:06:37;;;;;;;1.20;1.03;;;14.10;77.00;;;;;;5049768;28;20458;-71
2021/05/03 12:09:06;;;;;;;1.60;1.47;;;14.10;77.20;;;;;;5048098;28;21016;-72
2021/05/03 12:11:32;;;;;;;1.53;1.40;;;14.10;75.30;;;;;;5049981;28;20557;-72
2021/05/03 12:14:01;;;;;;;1.20;1.00;;;14.10;75.40;;;;;;5038452;28;21016;-72
2021/05/03 12:16:37;;;;;;;1.30;1.13;;;14.20;76.70;;;;;;5032939;28;21016;-72
2021/05/03 12:19:11;;;;;;;1.33;1.23;;;14.10;75.20;;;;;;5031085;28;20460;-72
2021/05/03 12:21:37;;;;;;;2.00;1.70;;;14.00;75.50;;;;;;5033470;28;20794;-72
2021/05/03 12:24:16;;;;;;;1.77;1.57;;;14.10;76.40;;;;;;5030406;28;20989;-72
2021/05/03 12:26:54;;;;;;;1.20;1.00;;;14.10;76.90;;;;;;5031603;28;20851;-71
2021/05/03 12:29:22;;;;;;;1.30;1.30;;;13.80;74.90;;;;;;5030431;28;20527;-71
2021/05/03 12:31:49;;;;;;;2.90;1.53;;;13.70;75.90;;;;;;5033287;28;20455;-71
2021/05/03 12:34:20;;;;;;;1.30;1.27;;;13.80;76.80;;;;;;5030722;28;20467;-69
2021/05/03 12:37:02;;;;;;;1.33;1.33;;;14.50;78.50;;;;;;5032779;28;20490;-69
2021/05/03 12:39:29;;;;;;;2.03;1.60;;;15.40;76.30;;;;;;5028526;28;20913;-72
2021/05/03 12:41:55;;;;;;;1.20;1.13;;;16.00;71.20;;;;;;5033252;28;20487;-71
2021/05/03 12:44:25;;;;;;;1.77;1.47;;;16.60;70.90;;;;;;5029262;28;20468;-72
2021/05/03 12:46:52;;;;;;;1.47;1.20;;;16.90;70.90;;;;;;5032567;28;20881;-72
2021/05/03 12:49:26;;;;;;;1.83;1.30;;;17.30;68.50;;;;;;5031390;28;20669;-72
2021/05/03 12:52:13;;;;;;;1.20;1.10;;;17.10;67.30;;;;;;5033192;28;20466;-72
2021/05/03 12:54:49;;;;;;;1.50;1.30;;;16.70;68.40;;;;;;5033349;28;20540;-72
2021/05/03 12:57:20;;;;;;;1.30;1.10;;;16.20;67.60;;;;;;5029199;28;20807;-72
2021/05/03 12:59:51;;;;;;;1.70;1.50;;;16.00;69.60;;;;;;5031875;28;20461;-72
2021/05/03 13:02:25;;;;;;;2.43;1.47;;;15.80;71.20;;;;;;5025961;28;20505;-72
2021/05/03 13:04:54;;;;;;;2.07;1.37;;;15.80;69.80;;;;;;5032185;28;20461;-72
2021/05/03 13:07:44;;;;;;;1.20;1.00;;;16.10;69.60;;;;;;5028171;28;20838;-72
2021/05/03 13:29:53;;;;;;;1.40;1.10;;;18.50;61.70;;;;;;5030730;28;20466;-69
2021/05/03 13:32:23;;;;;;;1.77;1.67;;;17.90;63.40;;;;;;5029126;28;20552;-70
2021/05/03 13:34:50;;;;;;;1.90;1.60;;;17.30;62.70;;;;;;5031090;28;20467;-70
2021/05/03 13:37:18;;;;;;;1.53;1.20;;;16.70;65.20;;;;;;5027258;28;20500;-70